sensor_id;sensor_type;location;lat;lon;timestamp;P1;durP1;ratioP1;P2;durP2;ratioP2
11090;SDS011;5599;52.210;21.046;2023-06-14T00:01:11;11.57;;;10.33;;
11090;SDS011;5599;52.210;21.046;2023-06-14T00:03:42;12.67;;;11.47;;
11090;SDS011;5599;52.210;21.046;2023-06-14T00:06:11;13.37;;;12.03;;
11090;SDS011;5599;52.210;21.046;2023-06-14T00:08:41;16.50;;;12.90;;
11090;SDS011;5599;52.210;21.046;2023-06-14T00:11:10;16.13;;;14.63;;
11090;SDS011;5599;52.210;21.046;2023-06-14T00:13:41;17.73;;;14.00;;
11090;SDS011;5599;52.210;21.046;2023-06-14T00:16:11;16.87;;;14.97;;
11090;SDS011;5599;52.210;21.046;2023-06-14T00:18:40;17.07;;;15.30;;
11090;SDS011;5599;52.210;21.046;2023-06-14T00:21:10;18.03;;;16.33;;
11090;SDS011;5599;52.210;21.046;2023-06-14T00:23:39;20.07;;;18.17;;
11090;SDS011;5599;52.210;21.046;2023-06-14T00:26:08;17.43;;;15.67;;
11090;SDS011;5599;52.210;21.046;2023-06-14T00:28:41;16.63;;;15.03;;
11090;SDS011;5599;52.210;21.046;2023-06-14T00:31:11;16.93;;;15.40;;
11090;SDS011;5599;52.210;21.046;2023-06-14T00:33:40;15.53;;;14.13;;
11090;SDS011;5599;52.210;21.046;2023-06-14T00:36:11;14.50;;;13.00;;
11090;SDS011;5599;52.210;21.046;2023-06-14T00:38:42;14.67;;;12.70;;
11090;SDS011;5599;52.210;21.046;2023-06-14T00:41:11;15.03;;;13.53;;
11090;SDS011;5599;52.210;21.046;2023-06-14T00:43:43;15.53;;;13.97;;
11090;SDS011;5599;52.210;21.046;2023-06-14T00:46:14;15.00;;;13.50;;
11090;SDS011;5599;52.210;21.046;2023-06-14T00:48:43;15.77;;;13.80;;
11090;SDS011;5599;52.210;21.046;2023-06-14T00:51:15;14.77;;;13.37;;
11090;SDS011;5599;52.210;21.046;2023-06-14T00:53:45;14.63;;;13.20;;
11090;SDS011;5599;52.210;21.046;2023-06-14T00:56:16;15.30;;;13.70;;
11090;SDS011;5599;52.210;21.046;2023-06-14T00:58:51;16.70;;;12.50;;
11090;SDS011;5599;52.210;21.046;2023-06-14T01:01:20;14.23;;;12.73;;
11090;SDS011;5599;52.210;21.046;2023-06-14T01:03:51;15.27;;;12.60;;
11090;SDS011;5599;52.210;21.046;2023-06-14T01:06:22;13.33;;;11.47;;
11090;SDS011;5599;52.210;21.046;2023-06-14T01:09:03;11.90;;;10.77;;
11090;SDS011;5599;52.210;21.046;2023-06-14T01:11:38;12.63;;;11.43;;
11090;SDS011;5599;52.210;21.046;2023-06-14T01:14:17;12.37;;;11.13;;
11090;SDS011;5599;52.210;21.046;2023-06-14T01:16:48;12.27;;;11.00;;
11090;SDS011;5599;52.210;21.046;2023-06-14T01:19:20;13.40;;;12.10;;
11090;SDS011;5599;52.210;21.046;2023-06-14T01:21:53;12.53;;;11.33;;
11090;SDS011;5599;52.210;21.046;2023-06-14T01:24:24;11.03;;;10.00;;
11090;SDS011;5599;52.210;21.046;2023-06-14T01:26:59;11.33;;;10.33;;
11090;SDS011;5599;52.210;21.046;2023-06-14T01:29:29;10.47;;;9.53;;
11090;SDS011;5599;52.210;21.046;2023-06-14T01:32:00;10.50;;;9.47;;
11090;SDS011;5599;52.210;21.046;2023-06-14T01:34:32;10.83;;;9.83;;
11090;SDS011;5599;52.210;21.046;2023-06-14T01:37:02;11.53;;;10.33;;
11090;SDS011;5599;52.210;21.046;2023-06-14T01:39:33;10.97;;;9.90;;
11090;SDS011;5599;52.210;21.046;2023-06-14T01:42:03;11.63;;;9.53;;
11090;SDS011;5599;52.210;21.046;2023-06-14T01:44:35;10.80;;;9.70;;
11090;SDS011;5599;52.210;21.046;2023-06-14T01:47:04;10.00;;;9.00;;
11090;SDS011;5599;52.210;21.046;2023-06-14T01:49:35;10.77;;;9.67;;
11090;SDS011;5599;52.210;21.046;2023-06-14T01:52:04;13.73;;;9.63;;
11090;SDS011;5599;52.210;21.046;2023-06-14T01:54:38;9.67;;;8.77;;
11090;SDS011;5599;52.210;21.046;2023-06-14T01:57:09;10.33;;;9.30;;
11090;SDS011;5599;52.210;21.046;2023-06-14T01:59:40;11.13;;;8.60;;
11090;SDS011;5599;52.210;21.046;2023-06-14T02:02:09;10.10;;;8.33;;
11090;SDS011;5599;52.210;21.046;2023-06-14T02:04:40;8.63;;;7.83;;
11090;SDS011;5599;52.210;21.046;2023-06-14T02:07:09;11.60;;;8.60;;
11090;SDS011;5599;52.210;21.046;2023-06-14T02:09:42;9.47;;;8.47;;
11090;SDS011;5599;52.210;21.046;2023-06-14T02:12:11;8.13;;;7.43;;
11090;SDS011;5599;52.210;21.046;2023-06-14T02:14:40;9.60;;;8.60;;
11090;SDS011;5599;52.210;21.046;2023-06-14T02:17:12;9.00;;;8.17;;
11090;SDS011;5599;52.210;21.046;2023-06-14T02:19:41;10.37;;;9.07;;
11090;SDS011;5599;52.210;21.046;2023-06-14T02:22:10;10.73;;;9.63;;
11090;SDS011;5599;52.210;21.046;2023-06-14T02:24:43;9.90;;;9.00;;
11090;SDS011;5599;52.210;21.046;2023-06-14T02:27:13;9.63;;;8.60;;
11090;SDS011;5599;52.210;21.046;2023-06-14T02:29:43;10.57;;;9.57;;
11090;SDS011;5599;52.210;21.046;2023-06-14T02:32:12;10.00;;;8.50;;
11090;SDS011;5599;52.210;21.046;2023-06-14T02:34:42;9.47;;;8.37;;
11090;SDS011;5599;52.210;21.046;2023-06-14T02:37:14;9.37;;;8.37;;
11090;SDS011;5599;52.210;21.046;2023-06-14T02:39:45;12.07;;;9.10;;
11090;SDS011;5599;52.210;21.046;2023-06-14T02:42:14;11.00;;;8.40;;
11090;SDS011;5599;52.210;21.046;2023-06-14T02:44:43;8.97;;;8.07;;
11090;SDS011;5599;52.210;21.046;2023-06-14T02:47:18;9.27;;;8.37;;
11090;SDS011;5599;52.210;21.046;2023-06-14T02:49:48;10.13;;;8.27;;
11090;SDS011;5599;52.210;21.046;2023-06-14T02:52:17;9.13;;;7.97;;
11090;SDS011;5599;52.210;21.046;2023-06-14T02:54:49;10.23;;;8.07;;
11090;SDS011;5599;52.210;21.046;2023-06-14T02:57:18;8.33;;;7.53;;
11090;SDS011;5599;52.210;21.046;2023-06-14T02:59:47;10.97;;;7.80;;
11090;SDS011;5599;52.210;21.046;2023-06-14T03:02:17;8.47;;;7.67;;
11090;SDS011;5599;52.210;21.046;2023-06-14T03:04:46;9.30;;;7.27;;
11090;SDS011;5599;52.210;21.046;2023-06-14T03:07:17;11.67;;;8.60;;
11090;SDS011;5599;52.210;21.046;2023-06-14T03:09:52;8.53;;;7.73;;
11090;SDS011;5599;52.210;21.046;2023-06-14T03:12:21;8.93;;;8.13;;
11090;SDS011;5599;52.210;21.046;2023-06-14T03:14:51;8.40;;;7.60;;
11090;SDS011;5599;52.210;21.046;2023-06-14T03:17:25;9.53;;;8.27;;
11090;SDS011;5599;52.210;21.046;2023-06-14T03:20:01;9.97;;;8.20;;
11090;SDS011;5599;52.210;21.046;2023-06-14T03:22:32;10.70;;;8.20;;
11090;SDS011;5599;52.210;21.046;2023-06-14T03:25:04;9.67;;;8.67;;
11090;SDS011;5599;52.210;21.046;2023-06-14T03:27:36;12.43;;;9.27;;
11090;SDS011;5599;52.210;21.046;2023-06-14T03:30:06;8.87;;;7.93;;
11090;SDS011;5599;52.210;21.046;2023-06-14T03:32:37;9.27;;;8.27;;
11090;SDS011;5599;52.210;21.046;2023-06-14T03:35:08;9.47;;;8.57;;
11090;SDS011;5599;52.210;21.046;2023-06-14T03:37:46;11.03;;;8.20;;
11090;SDS011;5599;52.210;21.046;2023-06-14T03:40:18;8.40;;;7.63;;
11090;SDS011;5599;52.210;21.046;2023-06-14T03:42:53;10.37;;;8.03;;
11090;SDS011;5599;52.210;21.046;2023-06-14T03:45:22;10.13;;;7.67;;
11090;SDS011;5599;52.210;21.046;2023-06-14T03:47:52;11.17;;;7.57;;
11090;SDS011;5599;52.210;21.046;2023-06-14T03:50:22;9.10;;;8.20;;
11090;SDS011;5599;52.210;21.046;2023-06-14T03:52:51;8.87;;;7.20;;
11090;SDS011;5599;52.210;21.046;2023-06-14T03:55:22;9.03;;;7.53;;
11090;SDS011;5599;52.210;21.046;2023-06-14T03:57:55;10.53;;;8.27;;
11090;SDS011;5599;52.210;21.046;2023-06-14T04:00:24;9.90;;;7.77;;
11090;SDS011;5599;52.210;21.046;2023-06-14T04:02:54;8.13;;;7.10;;
11090;SDS011;5599;52.210;21.046;2023-06-14T04:05:24;11.03;;;8.23;;
11090;SDS011;5599;52.210;21.046;2023-06-14T04:07:55;9.97;;;7.90;;
11090;SDS011;5599;52.210;21.046;2023-06-14T04:10:32;8.90;;;8.10;;
11090;SDS011;5599;52.210;21.046;2023-06-14T04:13:01;8.50;;;7.70;;
11090;SDS011;5599;52.210;21.046;2023-06-14T04:15:31;8.87;;;8.07;;
11090;SDS011;5599;52.210;21.046;2023-06-14T04:18:01;8.40;;;7.53;;
11090;SDS011;5599;52.210;21.046;2023-06-14T04:20:31;9.03;;;8.07;;
11090;SDS011;5599;52.210;21.046;2023-06-14T04:23:10;9.53;;;8.03;;
11090;SDS011;5599;52.210;21.046;2023-06-14T04:25:43;7.83;;;7.13;;
11090;SDS011;5599;52.210;21.046;2023-06-14T04:28:15;9.50;;;7.30;;
11090;SDS011;5599;52.210;21.046;2023-06-14T04:30:46;9.77;;;7.43;;
11090;SDS011;5599;52.210;21.046;2023-06-14T04:33:18;9.97;;;8.07;;
11090;SDS011;5599;52.210;21.046;2023-06-14T04:35:47;11.40;;;8.33;;
11090;SDS011;5599;52.210;21.046;2023-06-14T04:38:21;11.73;;;8.13;;
11090;SDS011;5599;52.210;21.046;2023-06-14T04:40:54;8.07;;;7.30;;
11090;SDS011;5599;52.210;21.046;2023-06-14T04:43:24;8.47;;;7.53;;
11090;SDS011;5599;52.210;21.046;2023-06-14T04:45:56;8.70;;;7.80;;
11090;SDS011;5599;52.210;21.046;2023-06-14T04:48:26;9.97;;;7.83;;
11090;SDS011;5599;52.210;21.046;2023-06-14T04:50:55;8.07;;;7.17;;
11090;SDS011;5599;52.210;21.046;2023-06-14T04:53:25;8.83;;;7.23;;
11090;SDS011;5599;52.210;21.046;2023-06-14T04:55:58;10.57;;;7.80;;
11090;SDS011;5599;52.210;21.046;2023-06-14T04:58:28;9.03;;;8.10;;
11090;SDS011;5599;52.210;21.046;2023-06-14T05:00:58;8.77;;;7.73;;
11090;SDS011;5599;52.210;21.046;2023-06-14T05:03:29;7.93;;;7.23;;
11090;SDS011;5599;52.210;21.046;2023-06-14T05:05:59;11.37;;;7.67;;
11090;SDS011;5599;52.210;21.046;2023-06-14T05:08:28;10.80;;;7.90;;
11090;SDS011;5599;52.210;21.046;2023-06-14T05:10:59;12.97;;;8.63;;
11090;SDS011;5599;52.210;21.046;2023-06-14T05:13:29;12.90;;;8.33;;
11090;SDS011;5599;52.210;21.046;2023-06-14T05:16:00;9.00;;;7.90;;
11090;SDS011;5599;52.210;21.046;2023-06-14T05:18:30;10.77;;;8.00;;
11090;SDS011;5599;52.210;21.046;2023-06-14T05:21:01;11.20;;;8.20;;
11090;SDS011;5599;52.210;21.046;2023-06-14T05:23:31;9.37;;;7.47;;
11090;SDS011;5599;52.210;21.046;2023-06-14T05:26:02;9.67;;;8.23;;
11090;SDS011;5599;52.210;21.046;2023-06-14T05:28:33;8.27;;;7.57;;
11090;SDS011;5599;52.210;21.046;2023-06-14T05:31:03;9.40;;;8.20;;
11090;SDS011;5599;52.210;21.046;2023-06-14T05:33:33;12.50;;;8.60;;
11090;SDS011;5599;52.210;21.046;2023-06-14T05:36:02;8.87;;;8.07;;
11090;SDS011;5599;52.210;21.046;2023-06-14T05:38:34;8.63;;;7.73;;
11090;SDS011;5599;52.210;21.046;2023-06-14T05:41:05;9.93;;;7.90;;
11090;SDS011;5599;52.210;21.046;2023-06-14T05:43:35;8.83;;;8.03;;
11090;SDS011;5599;52.210;21.046;2023-06-14T05:46:04;11.40;;;8.67;;
11090;SDS011;5599;52.210;21.046;2023-06-14T05:48:34;8.53;;;7.73;;
11090;SDS011;5599;52.210;21.046;2023-06-14T05:51:03;8.90;;;8.00;;
11090;SDS011;5599;52.210;21.046;2023-06-14T05:53:36;8.90;;;7.93;;
11090;SDS011;5599;52.210;21.046;2023-06-14T05:56:06;9.73;;;8.30;;
11090;SDS011;5599;52.210;21.046;2023-06-14T05:58:36;10.47;;;8.37;;
11090;SDS011;5599;52.210;21.046;2023-06-14T06:01:05;8.17;;;7.33;;
11090;SDS011;5599;52.210;21.046;2023-06-14T06:03:35;9.67;;;7.87;;
11090;SDS011;5599;52.210;21.046;2023-06-14T06:06:04;8.63;;;7.50;;
11090;SDS011;5599;52.210;21.046;2023-06-14T06:08:35;11.30;;;8.20;;
11090;SDS011;5599;52.210;21.046;2023-06-14T06:11:04;9.77;;;8.50;;
11090;SDS011;5599;52.210;21.046;2023-06-14T06:13:35;9.47;;;8.10;;
11090;SDS011;5599;52.210;21.046;2023-06-14T06:16:06;11.57;;;8.07;;
11090;SDS011;5599;52.210;21.046;2023-06-14T06:18:36;9.97;;;8.47;;
11090;SDS011;5599;52.210;21.046;2023-06-14T06:21:06;8.73;;;7.83;;
11090;SDS011;5599;52.210;21.046;2023-06-14T06:23:35;13.23;;;8.57;;
11090;SDS011;5599;52.210;21.046;2023-06-14T06:26:04;10.93;;;8.87;;
11090;SDS011;5599;52.210;21.046;2023-06-14T06:28:35;10.63;;;9.00;;
11090;SDS011;5599;52.210;21.046;2023-06-14T06:31:04;10.37;;;9.23;;
11090;SDS011;5599;52.210;21.046;2023-06-14T06:33:34;9.40;;;7.97;;
11090;SDS011;5599;52.210;21.046;2023-06-14T06:36:04;10.90;;;7.87;;
11090;SDS011;5599;52.210;21.046;2023-06-14T06:38:33;10.30;;;8.33;;
11090;SDS011;5599;52.210;21.046;2023-06-14T06:41:03;11.70;;;8.63;;
11090;SDS011;5599;52.210;21.046;2023-06-14T06:43:34;8.77;;;7.87;;
11090;SDS011;5599;52.210;21.046;2023-06-14T06:46:03;11.30;;;8.20;;
11090;SDS011;5599;52.210;21.046;2023-06-14T06:48:32;9.67;;;8.47;;
11090;SDS011;5599;52.210;21.046;2023-06-14T06:51:02;14.10;;;7.73;;
11090;SDS011;5599;52.210;21.046;2023-06-14T06:53:32;8.90;;;7.77;;
11090;SDS011;5599;52.210;21.046;2023-06-14T06:56:10;10.83;;;8.23;;
11090;SDS011;5599;52.210;21.046;2023-06-14T06:58:40;7.90;;;7.10;;
11090;SDS011;5599;52.210;21.046;2023-06-14T07:01:10;11.83;;;8.70;;
11090;SDS011;5599;52.210;21.046;2023-06-14T07:03:40;9.10;;;8.20;;
11090;SDS011;5599;52.210;21.046;2023-06-14T07:06:10;8.57;;;7.73;;
11090;SDS011;5599;52.210;21.046;2023-06-14T07:08:40;8.77;;;7.87;;
11090;SDS011;5599;52.210;21.046;2023-06-14T07:11:09;8.60;;;7.70;;
11090;SDS011;5599;52.210;21.046;2023-06-14T07:13:39;9.37;;;7.90;;
11090;SDS011;5599;52.210;21.046;2023-06-14T07:16:10;10.33;;;7.90;;
11090;SDS011;5599;52.210;21.046;2023-06-14T07:18:39;12.17;;;8.30;;
11090;SDS011;5599;52.210;21.046;2023-06-14T07:21:08;13.60;;;8.20;;
11090;SDS011;5599;52.210;21.046;2023-06-14T07:23:38;11.40;;;8.20;;
11090;SDS011;5599;52.210;21.046;2023-06-14T07:26:08;10.77;;;8.67;;
11090;SDS011;5599;52.210;21.046;2023-06-14T07:28:37;9.77;;;8.30;;
11090;SDS011;5599;52.210;21.046;2023-06-14T07:31:08;8.37;;;7.30;;
11090;SDS011;5599;52.210;21.046;2023-06-14T07:33:38;10.03;;;7.13;;
11090;SDS011;5599;52.210;21.046;2023-06-14T07:36:08;12.00;;;8.20;;
11090;SDS011;5599;52.210;21.046;2023-06-14T07:38:38;10.67;;;7.83;;
11090;SDS011;5599;52.210;21.046;2023-06-14T07:41:07;8.37;;;7.37;;
11090;SDS011;5599;52.210;21.046;2023-06-14T07:43:37;7.67;;;6.97;;
11090;SDS011;5599;52.210;21.046;2023-06-14T07:46:06;8.10;;;7.40;;
11090;SDS011;5599;52.210;21.046;2023-06-14T07:48:37;8.30;;;6.93;;
11090;SDS011;5599;52.210;21.046;2023-06-14T07:51:07;10.47;;;6.70;;
11090;SDS011;5599;52.210;21.046;2023-06-14T07:53:36;10.53;;;6.63;;
11090;SDS011;5599;52.210;21.046;2023-06-14T07:56:06;7.50;;;6.70;;
11090;SDS011;5599;52.210;21.046;2023-06-14T07:58:35;8.43;;;6.50;;
11090;SDS011;5599;52.210;21.046;2023-06-14T08:01:05;8.57;;;6.97;;
11090;SDS011;5599;52.210;21.046;2023-06-14T08:03:36;7.63;;;6.20;;
11090;SDS011;5599;52.210;21.046;2023-06-14T08:06:06;8.73;;;6.53;;
11090;SDS011;5599;52.210;21.046;2023-06-14T08:08:36;7.83;;;6.83;;
11090;SDS011;5599;52.210;21.046;2023-06-14T08:11:05;9.33;;;7.10;;
11090;SDS011;5599;52.210;21.046;2023-06-14T08:13:34;7.50;;;6.50;;
11090;SDS011;5599;52.210;21.046;2023-06-14T08:16:04;7.53;;;6.10;;
11090;SDS011;5599;52.210;21.046;2023-06-14T08:18:34;8.00;;;6.30;;
11090;SDS011;5599;52.210;21.046;2023-06-14T08:21:04;9.97;;;5.97;;
11090;SDS011;5599;52.210;21.046;2023-06-14T08:23:34;14.32;;;7.03;;
11090;SDS011;5599;52.210;21.046;2023-06-14T08:26:04;7.57;;;6.27;;
11090;SDS011;5599;52.210;21.046;2023-06-14T08:28:33;8.87;;;7.20;;
11090;SDS011;5599;52.210;21.046;2023-06-14T08:31:03;11.03;;;6.93;;
11090;SDS011;5599;52.210;21.046;2023-06-14T08:33:33;12.07;;;6.93;;
11090;SDS011;5599;52.210;21.046;2023-06-14T08:36:02;8.07;;;6.18;;
11090;SDS011;5599;52.210;21.046;2023-06-14T08:38:33;9.20;;;6.80;;
11090;SDS011;5599;52.210;21.046;2023-06-14T08:41:03;6.93;;;5.93;;
11090;SDS011;5599;52.210;21.046;2023-06-14T08:43:34;8.57;;;6.63;;
11090;SDS011;5599;52.210;21.046;2023-06-14T08:46:03;9.48;;;6.68;;
11090;SDS011;5599;52.210;21.046;2023-06-14T08:48:35;10.80;;;6.53;;
11090;SDS011;5599;52.210;21.046;2023-06-14T08:51:07;7.78;;;6.47;;
11090;SDS011;5599;52.210;21.046;2023-06-14T08:53:39;9.15;;;5.90;;
11090;SDS011;5599;52.210;21.046;2023-06-14T08:56:09;10.35;;;6.70;;
11090;SDS011;5599;52.210;21.046;2023-06-14T08:58:42;11.80;;;6.65;;
11090;SDS011;5599;52.210;21.046;2023-06-14T09:01:13;7.75;;;6.47;;
11090;SDS011;5599;52.210;21.046;2023-06-14T09:03:44;6.63;;;5.38;;
11090;SDS011;5599;52.210;21.046;2023-06-14T09:06:16;9.52;;;5.90;;
11090;SDS011;5599;52.210;21.046;2023-06-14T09:08:50;10.98;;;6.15;;
11090;SDS011;5599;52.210;21.046;2023-06-14T09:11:21;9.60;;;6.45;;
11090;SDS011;5599;52.210;21.046;2023-06-14T09:13:50;7.60;;;5.68;;
11090;SDS011;5599;52.210;21.046;2023-06-14T09:16:20;12.40;;;6.05;;
11090;SDS011;5599;52.210;21.046;2023-06-14T09:18:50;9.47;;;6.37;;
11090;SDS011;5599;52.210;21.046;2023-06-14T09:21:21;8.23;;;6.35;;
11090;SDS011;5599;52.210;21.046;2023-06-14T09:23:50;9.15;;;6.28;;
11090;SDS011;5599;52.210;21.046;2023-06-14T09:26:21;7.88;;;6.05;;
11090;SDS011;5599;52.210;21.046;2023-06-14T09:28:50;8.32;;;5.63;;
11090;SDS011;5599;52.210;21.046;2023-06-14T09:31:20;9.80;;;6.47;;
11090;SDS011;5599;52.210;21.046;2023-06-14T09:33:49;10.93;;;6.70;;
11090;SDS011;5599;52.210;21.046;2023-06-14T09:36:24;10.10;;;6.18;;
11090;SDS011;5599;52.210;21.046;2023-06-14T09:38:55;12.73;;;7.07;;
11090;SDS011;5599;52.210;21.046;2023-06-14T09:41:30;8.23;;;6.60;;
11090;SDS011;5599;52.210;21.046;2023-06-14T09:44:01;7.87;;;5.80;;
11090;SDS011;5599;52.210;21.046;2023-06-14T09:46:37;6.53;;;5.60;;
11090;SDS011;5599;52.210;21.046;2023-06-14T09:49:08;9.43;;;4.83;;
11090;SDS011;5599;52.210;21.046;2023-06-14T09:51:42;6.47;;;4.07;;
11090;SDS011;5599;52.210;21.046;2023-06-14T09:54:14;5.60;;;4.10;;
11090;SDS011;5599;52.210;21.046;2023-06-14T09:56:46;4.53;;;3.90;;
11090;SDS011;5599;52.210;21.046;2023-06-14T09:59:18;7.70;;;5.00;;
11090;SDS011;5599;52.210;21.046;2023-06-14T10:01:54;5.63;;;4.33;;
11090;SDS011;5599;52.210;21.046;2023-06-14T10:04:26;9.10;;;5.07;;
11090;SDS011;5599;52.210;21.046;2023-06-14T10:07:00;5.87;;;4.93;;
11090;SDS011;5599;52.210;21.046;2023-06-14T10:09:30;9.50;;;5.07;;
11090;SDS011;5599;52.210;21.046;2023-06-14T10:12:00;6.50;;;5.40;;
11090;SDS011;5599;52.210;21.046;2023-06-14T10:14:30;7.20;;;5.33;;
11090;SDS011;5599;52.210;21.046;2023-06-14T10:17:02;8.90;;;5.53;;
11090;SDS011;5599;52.210;21.046;2023-06-14T10:19:37;6.33;;;4.90;;
11090;SDS011;5599;52.210;21.046;2023-06-14T10:22:14;6.03;;;4.87;;
11090;SDS011;5599;52.210;21.046;2023-06-14T10:24:50;7.53;;;5.20;;
11090;SDS011;5599;52.210;21.046;2023-06-14T10:27:19;6.00;;;5.40;;
11090;SDS011;5599;52.210;21.046;2023-06-14T10:30:03;6.15;;;4.70;;
11090;SDS011;5599;52.210;21.046;2023-06-14T10:32:35;9.95;;;4.63;;
11090;SDS011;5599;52.210;21.046;2023-06-14T10:35:42;5.00;;;4.15;;
11090;SDS011;5599;52.210;21.046;2023-06-14T10:38:12;7.05;;;4.38;;
11090;SDS011;5599;52.210;21.046;2023-06-14T10:40:42;7.25;;;4.30;;
11090;SDS011;5599;52.210;21.046;2023-06-14T10:43:23;6.05;;;4.40;;
11090;SDS011;5599;52.210;21.046;2023-06-14T10:48:45;4.13;;;3.70;;
11090;SDS011;5599;52.210;21.046;2023-06-14T10:51:15;9.93;;;3.83;;
11090;SDS011;5599;52.210;21.046;2023-06-14T10:53:53;6.50;;;3.90;;
11090;SDS011;5599;52.210;21.046;2023-06-14T10:56:28;6.40;;;3.83;;
11090;SDS011;5599;52.210;21.046;2023-06-14T10:58:58;8.20;;;4.37;;
11090;SDS011;5599;52.210;21.046;2023-06-14T11:01:32;6.47;;;3.80;;
11090;SDS011;5599;52.210;21.046;2023-06-14T11:04:08;11.37;;;4.47;;
11090;SDS011;5599;52.210;21.046;2023-06-14T11:06:45;8.70;;;4.23;;
11090;SDS011;5599;52.210;21.046;2023-06-14T11:09:32;5.47;;;4.57;;
11090;SDS011;5599;52.210;21.046;2023-06-14T11:12:19;6.57;;;4.20;;
11090;SDS011;5599;52.210;21.046;2023-06-14T11:14:50;6.20;;;4.23;;
11090;SDS011;5599;52.210;21.046;2023-06-14T11:17:19;4.70;;;4.30;;
11090;SDS011;5599;52.210;21.046;2023-06-14T11:19:49;8.07;;;4.97;;
11090;SDS011;5599;52.210;21.046;2023-06-14T11:22:18;7.27;;;4.40;;
11090;SDS011;5599;52.210;21.046;2023-06-14T11:24:49;5.77;;;4.43;;
11090;SDS011;5599;52.210;21.046;2023-06-14T11:27:19;5.53;;;4.70;;
11090;SDS011;5599;52.210;21.046;2023-06-14T11:29:48;11.00;;;5.00;;
11090;SDS011;5599;52.210;21.046;2023-06-14T11:32:17;8.77;;;4.77;;
11090;SDS011;5599;52.210;21.046;2023-06-14T11:34:47;6.27;;;3.87;;
11090;SDS011;5599;52.210;21.046;2023-06-14T11:37:18;6.30;;;3.93;;
11090;SDS011;5599;52.210;21.046;2023-06-14T11:39:49;7.10;;;4.18;;
11090;SDS011;5599;52.210;21.046;2023-06-14T11:42:19;9.23;;;4.63;;
11090;SDS011;5599;52.210;21.046;2023-06-14T11:44:48;4.20;;;3.55;;
11090;SDS011;5599;52.210;21.046;2023-06-14T11:47:30;4.63;;;3.10;;
11090;SDS011;5599;52.210;21.046;2023-06-14T11:50:01;5.65;;;3.72;;
11090;SDS011;5599;52.210;21.046;2023-06-14T11:52:31;4.25;;;3.08;;
11090;SDS011;5599;52.210;21.046;2023-06-14T11:55:02;4.15;;;3.13;;
11090;SDS011;5599;52.210;21.046;2023-06-14T11:57:33;6.20;;;3.20;;
11090;SDS011;5599;52.210;21.046;2023-06-14T12:00:04;6.20;;;3.28;;
11090;SDS011;5599;52.210;21.046;2023-06-14T12:02:39;5.85;;;3.08;;
11090;SDS011;5599;52.210;21.046;2023-06-14T12:05:09;6.38;;;3.30;;
11090;SDS011;5599;52.210;21.046;2023-06-14T12:07:39;6.28;;;3.00;;
11090;SDS011;5599;52.210;21.046;2023-06-14T12:10:10;4.22;;;2.72;;
11090;SDS011;5599;52.210;21.046;2023-06-14T12:12:40;7.55;;;3.30;;
11090;SDS011;5599;52.210;21.046;2023-06-14T12:15:10;4.68;;;3.10;;
11090;SDS011;5599;52.210;21.046;2023-06-14T12:17:42;5.03;;;3.05;;
11090;SDS011;5599;52.210;21.046;2023-06-14T12:20:12;2.97;;;2.78;;
11090;SDS011;5599;52.210;21.046;2023-06-14T12:22:47;5.50;;;2.75;;
11090;SDS011;5599;52.210;21.046;2023-06-14T12:25:25;4.50;;;2.95;;
11090;SDS011;5599;52.210;21.046;2023-06-14T12:27:58;3.78;;;2.88;;
11090;SDS011;5599;52.210;21.046;2023-06-14T12:30:32;6.73;;;2.93;;
11090;SDS011;5599;52.210;21.046;2023-06-14T12:33:02;7.03;;;2.97;;
11090;SDS011;5599;52.210;21.046;2023-06-14T12:35:31;2.97;;;2.67;;
11090;SDS011;5599;52.210;21.046;2023-06-14T12:38:01;4.82;;;2.70;;
11090;SDS011;5599;52.210;21.046;2023-06-14T12:40:33;3.08;;;2.63;;
11090;SDS011;5599;52.210;21.046;2023-06-14T12:43:02;3.83;;;2.55;;
11090;SDS011;5599;52.210;21.046;2023-06-14T12:45:32;4.03;;;2.70;;
11090;SDS011;5599;52.210;21.046;2023-06-14T12:48:01;2.90;;;2.60;;
11090;SDS011;5599;52.210;21.046;2023-06-14T12:50:31;4.67;;;2.80;;
11090;SDS011;5599;52.210;21.046;2023-06-14T12:53:00;4.47;;;2.88;;
11090;SDS011;5599;52.210;21.046;2023-06-14T12:55:29;6.17;;;3.00;;
11090;SDS011;5599;52.210;21.046;2023-06-14T12:58:00;2.70;;;2.50;;
11090;SDS011;5599;52.210;21.046;2023-06-14T13:00:30;4.20;;;2.60;;
11090;SDS011;5599;52.210;21.046;2023-06-14T13:02:59;3.27;;;2.80;;
11090;SDS011;5599;52.210;21.046;2023-06-14T13:05:29;3.80;;;2.40;;
11090;SDS011;5599;52.210;21.046;2023-06-14T13:08:03;4.13;;;2.47;;
11090;SDS011;5599;52.210;21.046;2023-06-14T13:10:33;4.73;;;2.67;;
11090;SDS011;5599;52.210;21.046;2023-06-14T13:13:04;2.97;;;2.37;;
11090;SDS011;5599;52.210;21.046;2023-06-14T13:15:34;3.07;;;2.40;;
11090;SDS011;5599;52.210;21.046;2023-06-14T13:18:04;5.97;;;2.70;;
11090;SDS011;5599;52.210;21.046;2023-06-14T13:20:33;6.50;;;2.70;;
11090;SDS011;5599;52.210;21.046;2023-06-14T13:23:03;3.33;;;2.50;;
11090;SDS011;5599;52.210;21.046;2023-06-14T13:25:34;4.07;;;2.47;;
11090;SDS011;5599;52.210;21.046;2023-06-14T13:28:05;3.50;;;2.57;;
11090;SDS011;5599;52.210;21.046;2023-06-14T13:30:34;3.88;;;2.65;;
11090;SDS011;5599;52.210;21.046;2023-06-14T13:33:04;5.03;;;2.53;;
11090;SDS011;5599;52.210;21.046;2023-06-14T13:35:33;3.90;;;2.53;;
11090;SDS011;5599;52.210;21.046;2023-06-14T13:38:03;2.50;;;2.30;;
11090;SDS011;5599;52.210;21.046;2023-06-14T13:40:32;7.97;;;2.50;;
11090;SDS011;5599;52.210;21.046;2023-06-14T13:43:02;8.38;;;2.95;;
11090;SDS011;5599;52.210;21.046;2023-06-14T13:45:34;2.73;;;2.10;;
11090;SDS011;5599;52.210;21.046;2023-06-14T13:48:04;2.95;;;2.55;;
11090;SDS011;5599;52.210;21.046;2023-06-14T13:50:34;2.60;;;2.30;;
11090;SDS011;5599;52.210;21.046;2023-06-14T13:53:03;5.00;;;2.60;;
11090;SDS011;5599;52.210;21.046;2023-06-14T13:55:32;5.23;;;3.00;;
11090;SDS011;5599;52.210;21.046;2023-06-14T13:58:02;5.63;;;2.85;;
11090;SDS011;5599;52.210;21.046;2023-06-14T14:00:33;3.47;;;2.38;;
11090;SDS011;5599;52.210;21.046;2023-06-14T14:03:04;6.10;;;2.38;;
11090;SDS011;5599;52.210;21.046;2023-06-14T14:05:34;4.20;;;3.03;;
11090;SDS011;5599;52.210;21.046;2023-06-14T14:08:03;3.92;;;2.95;;
11090;SDS011;5599;52.210;21.046;2023-06-14T14:10:33;4.57;;;3.10;;
11090;SDS011;5599;52.210;21.046;2023-06-14T14:13:03;4.53;;;2.63;;
11090;SDS011;5599;52.210;21.046;2023-06-14T14:15:34;3.50;;;2.77;;
11090;SDS011;5599;52.210;21.046;2023-06-14T14:18:04;3.35;;;2.88;;
11090;SDS011;5599;52.210;21.046;2023-06-14T14:20:34;3.85;;;2.92;;
11090;SDS011;5599;52.210;21.046;2023-06-14T14:23:04;3.73;;;2.93;;
11090;SDS011;5599;52.210;21.046;2023-06-14T14:25:33;3.67;;;2.70;;
11090;SDS011;5599;52.210;21.046;2023-06-14T14:28:03;6.10;;;2.97;;
11090;SDS011;5599;52.210;21.046;2023-06-14T14:30:33;4.25;;;3.20;;
11090;SDS011;5599;52.210;21.046;2023-06-14T14:33:06;4.10;;;2.75;;
11090;SDS011;5599;52.210;21.046;2023-06-14T14:35:38;3.70;;;2.90;;
11090;SDS011;5599;52.210;21.046;2023-06-14T14:38:08;4.38;;;2.80;;
11090;SDS011;5599;52.210;21.046;2023-06-14T14:40:38;3.13;;;2.45;;
11090;SDS011;5599;52.210;21.046;2023-06-14T14:43:08;3.92;;;2.60;;
11090;SDS011;5599;52.210;21.046;2023-06-14T14:45:38;3.20;;;2.90;;
11090;SDS011;5599;52.210;21.046;2023-06-14T14:48:08;3.30;;;2.70;;
11090;SDS011;5599;52.210;21.046;2023-06-14T14:50:38;4.50;;;2.85;;
11090;SDS011;5599;52.210;21.046;2023-06-14T14:53:07;7.28;;;2.95;;
11090;SDS011;5599;52.210;21.046;2023-06-14T14:55:37;3.83;;;3.35;;
11090;SDS011;5599;52.210;21.046;2023-06-14T14:58:08;4.47;;;2.60;;
11090;SDS011;5599;52.210;21.046;2023-06-14T15:00:39;6.07;;;3.10;;
11090;SDS011;5599;52.210;21.046;2023-06-14T15:03:08;5.80;;;2.77;;
11090;SDS011;5599;52.210;21.046;2023-06-14T15:05:38;4.60;;;2.93;;
11090;SDS011;5599;52.210;21.046;2023-06-14T15:08:07;3.13;;;2.58;;